Time;durP1;ratioP1;P1;durP2;ratioP2;P2;SDS_P1;SDS_P2;PMS_P1;PMS_P2;Temp;Humidity;BMP_temperature;BMP_pressure;BME280_temperature;BME280_humidity;BME280_pressure;Samples;Min_cycle;Max_cycle;Signal;HPM_P1;HPM_P2
2021/05/20 15:23:53;;;;;;;3.58;2.40;;;;;;;19.70;50.12;99386.34;5066190;28;20864;-68
2021/05/20 15:26:19;;;;;;;4.25;2.40;;;;;;;20.13;50.98;99463.00;5066792;28;20044;-68
2021/05/20 15:28:44;;;;;;;2.60;1.83;;;;;;;20.08;50.23;99474.28;5066861;28;20035;-68
2021/05/20 15:31:09;;;;;;;3.22;2.08;;;;;;;20.17;48.44;99469.53;5066680;28;20032;-68
2021/05/20 15:33:36;;;;;;;2.83;1.90;;;;;;;20.24;48.98;99494.28;5067085;28;20123;-68
2021/05/20 15:36:03;;;;;;;4.03;2.83;;;;;;;20.14;47.66;99462.78;5067476;28;20032;-68
2021/05/20 15:38:29;;;;;;;5.22;3.58;;;;;;;20.19;48.47;99483.47;5069320;28;20017;-67
2021/05/20 15:40:55;;;;;;;5.05;3.50;;;;;;;20.08;48.17;99463.66;5068124;28;20040;-67
2021/05/20 15:43:21;;;;;;;3.15;2.30;;;;;;;19.96;47.78;99487.38;5069238;28;20020;-68
2021/05/20 15:45:47;;;;;;;3.50;2.55;;;;;;;19.52;50.75;99464.03;5069776;28;20028;-67
2021/05/20 15:50:58;;;;;;;1.92;1.02;;;;;;;19.25;61.20;99501.16;5069184;28;20094;-67
2021/05/20 15:53:24;;;;;;;2.05;1.10;;;;;;;19.01;63.20;99515.81;5069225;28;20029;-67
2021/05/20 15:55:49;;;;;;;3.95;1.00;;;;;;;18.76;64.74;99514.66;5069066;28;20506;-68
2021/05/20 15:58:15;;;;;;;2.65;1.60;;;;;;;18.74;65.18;99519.34;5068984;28;20064;-67
2021/05/20 16:00:40;;;;;;;2.63;1.15;;;;;;;18.54;66.81;99527.19;5068808;28;20443;-67
2021/05/20 16:03:05;;;;;;;2.17;1.38;;;;;;;18.39;65.46;99495.44;5068997;28;20021;-67
2021/05/20 16:05:32;;;;;;;3.05;1.85;;;;;;;18.60;65.85;99529.88;5063290;28;20033;-67
2021/05/20 16:15:38;;;;;;;3.85;1.60;;;;;;;17.78;71.31;99514.56;5047286;28;20028;-67
2021/05/20 16:18:04;;;;;;;3.60;1.25;;;;;;;17.79;71.76;99497.69;5046992;28;20082;-67
2021/05/20 16:20:30;;;;;;;2.03;1.55;;;;;;;17.80;68.18;99494.00;5046937;28;20025;-68
2021/05/20 16:26:07;;;;;;;2.45;1.50;;;;;;;18.06;69.57;99546.44;5033253;28;20865;-68
2021/05/20 16:38:41;;;;;;;2.40;1.30;;;;;;;17.82;69.14;99558.25;5019016;28;20145;-67
2021/05/20 16:41:07;;;;;;;1.50;0.98;;;;;;;17.31;70.91;99513.25;5017033;28;20038;-67
2021/05/20 16:43:32;;;;;;;1.33;0.90;;;;;;;17.34;71.78;99533.25;5027009;28;20034;-67
2021/05/20 16:45:58;;;;;;;1.42;1.25;;;;;;;17.65;71.58;99573.56;5024708;28;20043;-68
2021/05/20 16:48:23;;;;;;;2.40;1.23;;;;;;;17.60;71.97;99570.63;5020012;28;20037;-68
2021/05/20 16:50:49;;;;;;;1.83;1.30;;;;;;;17.80;71.83;99585.94;5028307;28;20032;-68
2021/05/20 16:53:14;;;;;;;1.80;1.20;;;;;;;17.35;71.52;99558.75;5029307;28;20507;-68
2021/05/20 16:58:45;;;;;;;9.75;6.82;;;;;;;17.21;72.92;99549.81;5011821;28;20939;-68
2021/05/20 17:01:11;;;;;;;2.58;1.65;;;;;;;17.19;74.55;99557.94;5011588;28;20022;-70
2021/05/20 17:03:38;;;;;;;2.90;1.58;;;;;;;17.49;74.91;99591.50;5018596;28;20556;-68
2021/05/20 17:06:04;;;;;;;1.83;1.20;;;;;;;17.38;74.53;99582.19;5028034;28;20115;-69
2021/05/20 17:08:29;;;;;;;2.50;1.60;;;;;;;17.43;75.51;99583.28;5024447;28;20041;-69
2021/05/20 17:11:00;;;;;;;2.75;1.30;;;;;;;17.12;76.32;99562.34;5027619;28;20041;-69
2021/05/20 17:13:38;;;;;;;2.55;1.75;;;;;;;17.38;75.66;99600.72;5022549;28;20488;-68
2021/05/20 17:16:05;;;;;;;2.35;1.60;;;;;;;17.36;75.20;99610.69;5018194;28;20034;-68
2021/05/20 17:18:31;;;;;;;2.55;1.40;;;;;;;17.28;76.25;99601.03;5024671;28;20017;-68
2021/05/20 17:20:57;;;;;;;3.28;1.83;;;;;;;17.17;76.24;99591.72;5025510;28;20065;-68
2021/05/20 17:23:24;;;;;;;3.55;2.42;;;;;;;17.22;75.24;99618.47;5027310;28;20049;-69
2021/05/20 17:25:50;;;;;;;5.10;2.70;;;;;;;16.80;76.21;99611.19;5026069;28;20132;-69
2021/05/20 17:28:17;;;;;;;4.35;2.42;;;;;;;16.50;79.75;99616.44;5011512;28;20517;-67
2021/05/20 17:30:44;;;;;;;3.08;2.13;;;;;;;16.44;87.45;99637.47;5019085;28;20032;-71
2021/05/20 17:33:10;;;;;;;2.53;1.92;;;;;;;16.33;93.55;99625.47;5025784;28;20049;-68
2021/05/20 17:35:36;;;;;;;2.42;1.83;;;;;;;16.09;100.00;99626.50;5025377;28;20488;-70
2021/05/20 17:38:02;;;;;;;5.88;2.72;;;;;;;15.98;100.00;99606.59;5020123;28;20483;-68
2021/05/20 17:40:27;;;;;;;3.55;2.10;;;;;;;16.08;99.55;99594.97;5012625;28;20118;-68
2021/05/20 17:42:53;;;;;;;3.47;2.55;;;;;;;16.21;98.76;99585.44;5021222;28;20088;-68
2021/05/20 17:45:18;;;;;;;3.30;2.22;;;;;;;16.47;95.67;99611.50;5013789;28;20497;-68
2021/05/20 17:47:44;;;;;;;3.92;2.60;;;;;;;16.33;97.70;99630.75;5018031;28;20034;-68
2021/05/20 17:50:11;;;;;;;3.83;2.38;;;;;;;16.43;98.14;99631.34;5017554;28;20026;-68
2021/05/20 17:52:40;;;;;;;4.13;2.60;;;;;;;16.39;99.47;99618.66;5022056;28;20042;-68
2021/05/20 17:55:08;;;;;;;3.88;2.58;;;;;;;16.56;94.60;99627.28;5022658;28;20435;-70
2021/05/20 17:57:33;;;;;;;3.58;2.60;;;;;;;16.66;97.99;99636.59;5013561;28;20088;-68
2021/05/20 18:00:08;;;;;;;3.17;2.13;;;;;;;16.82;95.27;99654.16;5019123;28;20013;-69
2021/05/20 18:02:33;;;;;;;3.15;2.28;;;;;;;16.69;91.20;99643.34;5031040;28;20460;-68
2021/05/20 18:04:59;;;;;;;3.85;2.53;;;;;;;16.53;89.28;99645.13;5018392;28;20433;-71
2021/05/20 18:07:25;;;;;;;3.90;2.95;;;;;;;16.46;90.33;99659.25;5016664;28;20156;-69
2021/05/20 18:09:52;;;;;;;4.20;2.75;;;;;;;16.47;88.67;99653.00;5011924;28;20030;-68
2021/05/20 18:12:33;;;;;;;3.75;2.75;;;;;;;16.59;93.41;99667.41;5020011;28;20370;-68
2021/05/20 18:15:06;;;;;;;3.95;2.90;;;;;;;16.65;100.00;99657.94;5014201;28;20038;-70
2021/05/20 18:20:20;;;;;;;7.15;4.10;;;;;;;16.52;100.00;99661.19;5012366;28;20538;-68
2021/05/20 18:22:46;;;;;;;4.63;3.10;;;;;;;16.81;100.00;99686.94;5021234;28;20049;-68
2021/05/20 18:25:12;;;;;;;114.88;91.90;;;;;;;16.32;100.00;99645.00;5020277;28;20035;-68
2021/05/20 18:27:37;;;;;;;5.53;3.53;;;;;;;16.62;98.83;99661.75;5016492;28;20029;-68
2021/05/20 18:30:06;;;;;;;4.80;3.40;;;;;;;16.44;99.45;99653.34;5018550;28;20032;-73
2021/05/20 18:32:32;;;;;;;6.50;2.63;;;;;;;16.62;100.00;99687.41;5011216;28;20030;-71
2021/05/20 18:34:59;;;;;;;3.80;2.53;;;;;;;16.46;100.00;99648.69;5020894;28;20036;-71
2021/05/20 18:37:26;;;;;;;3.08;2.17;;;;;;;16.14;100.00;99663.81;5025361;28;20040;-71
2021/05/20 18:40:02;;;;;;;3.75;2.70;;;;;;;16.23;100.00;99662.75;5023310;28;20416;-71
2021/05/20 18:42:33;;;;;;;4.80;2.70;;;;;;;16.28;100.00;99678.09;5019147;28;20037;-70
2021/05/20 18:45:04;;;;;;;6.10;2.80;;;;;;;16.13;100.00;99667.47;5017277;28;20413;-69
2021/05/20 18:47:30;;;;;;;4.60;3.20;;;;;;;15.90;100.00;99662.16;5015435;28;20037;-68
2021/05/20 18:49:56;;;;;;;4.65;3.28;;;;;;;15.98;100.00;99682.41;5019780;28;20487;-70
2021/05/20 18:52:21;;;;;;;4.50;3.38;;;;;;;15.87;100.00;99685.47;5018876;28;20034;-68
2021/05/20 18:54:53;;;;;;;7.32;3.88;;;;;;;15.98;100.00;99720.22;5020663;28;20104;-68
2021/05/20 18:57:19;;;;;;;4.50;3.35;;;;;;;15.49;100.00;99696.66;5011259;28;20033;-68
2021/05/20 18:59:45;;;;;;;5.68;3.17;;;;;;;15.75;100.00;99733.38;5019220;28;20060;-69
2021/05/20 19:02:12;;;;;;;4.53;2.90;;;;;;;15.64;100.00;99707.31;5012094;28;20548;-68
2021/05/20 19:04:38;;;;;;;5.65;3.65;;;;;;;15.94;100.00;99745.38;5020058;28;20022;-69
2021/05/20 19:09:38;;;;;;;5.15;3.65;;;;;;;15.88;100.00;99739.94;5011191;28;20045;-69
2021/05/20 19:12:04;;;;;;;4.97;3.85;;;;;;;15.88;100.00;99734.66;5019196;28;20030;-69
2021/05/20 19:14:30;;;;;;;6.25;3.88;;;;;;;15.96;100.00;99747.81;5012999;28;20483;-69
2021/05/20 19:16:56;;;;;;;6.10;3.60;;;;;;;16.24;100.00;99795.78;5017626;28;20080;-69
2021/05/20 19:20:07;;;;;;;7.50;3.97;;;;;;;16.20;100.00;99812.94;5013714;28;20523;-69
2021/05/20 19:22:15;;;;;;;6.65;4.07;;;;;;;16.04;100.00;99816.50;5015971;28;20087;-69
2021/05/20 19:24:41;;;;;;;36.60;26.98;;;;;;;15.95;100.00;99820.19;5020200;28;20037;-70
2021/05/20 19:27:08;;;;;;;16.42;12.98;;;;;;;15.81;100.00;99822.53;5013574;28;20034;-69
2021/05/20 19:29:37;;;;;;;5.28;4.00;;;;;;;15.86;100.00;99824.66;5024371;28;20029;-70
2021/05/20 19:32:07;;;;;;;6.63;4.72;;;;;;;15.74;100.00;99804.91;5016496;28;20038;-71
2021/05/20 19:34:33;;;;;;;7.45;4.85;;;;;;;15.71;100.00;99790.22;5011790;28;20489;-69
2021/05/20 19:37:05;;;;;;;5.90;4.78;;;;;;;15.94;100.00;99815.91;5021506;28;20037;-69
2021/05/20 19:39:30;;;;;;;20.92;17.85;;;;;;;15.76;100.00;99792.31;5010055;28;20046;-69
2021/05/20 19:41:56;;;;;;;7.68;6.07;;;;;;;15.97;100.00;99802.34;5020162;28;20037;-69
2021/05/20 19:44:22;;;;;;;7.15;5.85;;;;;;;15.40;100.00;99773.44;5010108;28;20037;-69
2021/05/20 19:46:48;;;;;;;10.95;6.10;;;;;;;15.03;100.00;99774.81;5029546;28;20064;-71
2021/05/20 19:49:14;;;;;;;6.97;5.80;;;;;;;15.26;100.00;99825.09;5032015;28;20452;-71
2021/05/20 19:51:39;;;;;;;6.90;5.93;;;;;;;15.42;100.00;99816.31;5032325;28;20026;-70
2021/05/20 19:54:19;;;;;;;8.18;6.28;;;;;;;15.63;100.00;99819.28;5030798;28;20087;-70
2021/05/20 19:59:38;;;;;;;8.00;5.45;;;;;;;15.65;100.00;99790.84;5032298;28;20057;-71
2021/05/20 20:02:09;;;;;;;6.30;5.63;;;;;;;15.91;100.00;99795.09;5031897;28;20036;-71
2021/05/20 20:04:34;;;;;;;7.00;5.18;;;;;;;16.07;100.00;99789.75;5032313;28;20112;-71
2021/05/20 20:07:29;;;;;;;6.13;5.00;;;;;;;16.22;100.00;99803.03;5031954;28;20104;-71
2021/05/20 20:09:54;;;;;;;7.07;4.95;;;;;;;16.14;100.00;99781.94;5034410;28;20021;-70
2021/05/20 20:12:20;;;;;;;5.60;4.40;;;;;;;15.82;100.00;99733.53;5035277;28;20113;-70
2021/05/20 20:14:45;;;;;;;9.25;5.68;;;;;;;15.92;100.00;99768.47;5035420;28;20420;-70
2021/05/20 20:17:11;;;;;;;9.00;5.70;;;;;;;15.93;100.00;99777.22;5035388;28;20022;-71
2021/05/20 20:19:38;;;;;;;8.48;6.72;;;;;;;15.82;100.00;99789.81;5035574;28;20025;-71
2021/05/20 20:22:06;;;;;;;8.55;7.07;;;;;;;15.47;100.00;99782.31;5035208;28;20092;-70
2021/05/20 20:30:00;;;;;;;8.75;7.85;;;;;;;14.85;100.00;99773.16;5035750;28;20095;-71
2021/05/20 20:32:29;;;;;;;9.32;7.07;;;;;;;15.06;100.00;99779.75;5035151;28;20476;-71
2021/05/20 20:42:45;;;;;;;8.40;6.80;;;;;;;15.29;100.00;99775.44;5035229;28;20044;-70
2021/05/20 20:45:11;;;;;;;9.13;7.75;;;;;;;15.25;100.00;99812.88;5035060;28;20108;-70
2021/05/20 20:47:37;;;;;;;8.85;7.80;;;;;;;15.25;100.00;99808.41;5034900;28;20029;-71
2021/05/20 20:50:10;;;;;;;7.43;6.50;;;;;;;15.31;100.00;99781.34;5035218;28;20404;-71
2021/05/20 20:52:36;;;;;;;9.75;6.70;;;;;;;15.58;100.00;99806.53;5035144;28;20037;-71
2021/05/20 20:55:01;;;;;;;7.75;6.50;;;;;;;15.65;100.00;99811.97;5034892;28;20032;-71
2021/05/20 20:57:27;;;;;;;8.60;6.70;;;;;;;15.51;100.00;99828.53;5034847;28;20029;-71
2021/05/20 20:59:54;;;;;;;8.00;7.00;;;;;;;15.21;100.00;99796.56;5034798;28;20101;-71
2021/05/20 21:02:20;;;;;;;9.45;7.00;;;;;;;15.40;100.00;99832.34;5034550;28;20132;-71
2021/05/20 21:04:46;;;;;;;7.82;6.95;;;;;;;15.33;100.00;99832.19;5034958;28;20099;-71
2021/05/20 21:07:11;;;;;;;10.57;7.10;;;;;;;15.25;100.00;99821.63;5034546;28;20459;-71
2021/05/20 21:09:43;;;;;;;10.63;7.65;;;;;;;15.33;100.00;99821.63;5034556;28;20475;-71
2021/05/20 21:12:10;;;;;;;7.95;6.72;;;;;;;15.24;100.00;99785.66;5034494;28;20037;-71
2021/05/20 21:14:35;;;;;;;6.93;5.70;;;;;;;15.33;100.00;99795.22;5034775;28;20026;-71
2021/05/20 21:17:00;;;;;;;8.00;6.45;;;;;;;15.36;100.00;99788.78;5034213;28;20530;-71
2021/05/20 21:19:26;;;;;;;7.63;6.40;;;;;;;15.47;100.00;99795.53;5034343;28;20438;-71
2021/05/20 21:21:54;;;;;;;8.75;5.60;;;;;;;15.54;100.00;99789.41;5034093;28;20389;-71
2021/05/20 21:24:19;;;;;;;10.70;5.97;;;;;;;15.80;100.00;99820.91;5034372;28;20504;-71
2021/05/20 21:26:45;;;;;;;9.45;6.60;;;;;;;15.87;100.00;99820.22;5034210;28;20037;-71
2021/05/20 21:29:11;;;;;;;11.55;6.60;;;;;;;15.89;100.00;99812.94;5032867;28;20025;-71
2021/05/20 21:31:37;;;;;;;15.38;6.97;;;;;;;15.72;100.00;99783.91;5034445;28;20378;-71
2021/05/20 21:34:03;;;;;;;12.05;7.05;;;;;;;15.57;100.00;99783.78;5034163;28;20032;-71
2021/05/20 21:36:29;;;;;;;12.80;7.50;;;;;;;15.58;100.00;99818.94;5034260;28;20487;-71
2021/05/20 21:38:54;;;;;;;15.98;8.23;;;;;;;15.37;100.00;99822.13;5033890;28;20026;-71
2021/05/20 21:41:21;;;;;;;24.70;8.52;;;;;;;15.02;100.00;99800.38;5034096;28;20041;-71
2021/05/20 21:43:46;;;;;;;16.70;7.72;;;;;;;14.99;100.00;99827.09;5033804;28;20029;-71
2021/05/20 21:46:12;;;;;;;9.95;7.20;;;;;;;15.03;100.00;99827.59;5034388;28;20052;-71
2021/05/20 21:48:37;;;;;;;12.00;7.40;;;;;;;14.62;100.00;99783.53;5032522;28;20116;-71
2021/05/20 21:51:03;;;;;;;10.73;7.30;;;;;;;14.79;100.00;99802.84;5034118;28;20021;-71
2021/05/20 21:53:31;;;;;;;12.60;6.88;;;;;;;15.08;100.00;99817.34;5034157;28;20041;-71
2021/05/20 21:55:56;;;;;;;12.10;7.40;;;;;;;15.26;100.00;99828.56;5033812;28;20061;-71
2021/05/20 21:58:22;;;;;;;14.60;7.57;;;;;;;15.36;100.00;99817.84;5033600;28;20060;-71
2021/05/20 22:00:48;;;;;;;14.52;7.07;;;;;;;15.42;100.00;99808.41;5034144;28;20075;-71
2021/05/20 22:03:15;;;;;;;12.35;6.70;;;;;;;15.41;100.00;99783.00;5033547;28;20112;-71
2021/05/20 22:05:41;;;;;;;11.18;7.10;;;;;;;15.32;100.00;99769.81;5032163;28;20049;-71
2021/05/20 22:08:06;;;;;;;11.13;7.10;;;;;;;15.50;100.00;99793.38;5033426;28;20064;-71
2021/05/20 22:10:39;;;;;;;8.07;6.65;;;;;;;15.45;100.00;99823.91;5033187;28;20032;-71
2021/05/20 22:13:32;;;;;;;12.45;7.70;;;;;;;14.79;100.00;99783.56;5033342;28;20047;-71
2021/05/20 22:15:56;;;;;;;13.77;8.65;;;;;;;14.62;100.00;99801.19;5033230;28;20063;-71
2021/05/20 22:18:21;;;;;;;8.77;6.85;;;;;;;15.04;100.00;99840.59;5033259;28;20465;-71
2021/05/20 22:20:47;;;;;;;13.25;8.02;;;;;;;14.91;100.00;99807.78;5033221;28;20056;-71
2021/05/20 22:23:13;;;;;;;11.68;7.95;;;;;;;15.06;100.00;99816.69;5033505;28;20559;-71
2021/05/20 22:26:03;;;;;;;11.35;7.75;;;;;;;15.23;100.00;99820.97;5032999;28;20033;-71
2021/05/20 22:28:42;;;;;;;9.20;6.80;;;;;;;15.43;100.00;99855.78;5033079;28;20022;-71
2021/05/20 22:31:28;;;;;;;10.57;7.35;;;;;;;15.42;100.00;99863.84;5033065;28;20026;-71
2021/05/20 22:33:53;;;;;;;11.07;7.35;;;;;;;15.37;100.00;99868.81;5033052;28;20029;-71
2021/05/20 22:36:18;;;;;;;11.00;6.75;;;;;;;15.24;100.00;99859.56;5033493;28;20378;-70
2021/05/20 22:38:44;;;;;;;8.57;7.47;;;;;;;15.29;100.00;99875.75;5032948;28;20469;-71
2021/05/20 22:41:09;;;;;;;10.77;7.70;;;;;;;15.43;100.00;99876.91;5032737;28;20499;-71
2021/05/20 22:43:35;;;;;;;12.00;7.00;;;;;;;15.48;100.00;99874.56;5032733;28;20461;-71
2021/05/20 22:46:00;;;;;;;9.10;7.03;;;;;;;15.45;100.00;99866.16;5032790;28;20143;-71
2021/05/20 22:48:26;;;;;;;12.93;7.63;;;;;;;15.33;100.00;99865.69;5032714;28;20036;-71
2021/05/20 22:50:51;;;;;;;11.07;8.85;;;;;;;15.02;100.00;99841.78;5033039;28;20031;-70
2021/05/20 22:53:16;;;;;;;11.65;8.48;;;;;;;15.06;100.00;99845.72;5032738;28;20029;-71
2021/05/20 22:55:42;;;;;;;12.95;7.95;;;;;;;15.16;100.00;99854.31;5032837;28;20051;-71
2021/05/20 22:58:07;;;;;;;12.30;8.43;;;;;;;15.31;100.00;99876.41;5032830;28;20025;-70
2021/05/20 23:00:33;;;;;;;11.02;8.52;;;;;;;15.17;100.00;99850.66;5032578;28;20033;-71
2021/05/20 23:02:58;;;;;;;9.07;8.05;;;;;;;15.33;100.00;99860.41;5032492;28;20111;-71
2021/05/20 23:05:24;;;;;;;11.98;8.82;;;;;;;15.34;100.00;99865.50;5032408;28;20029;-71
2021/05/20 23:07:49;;;;;;;12.52;8.50;;;;;;;15.02;100.00;99831.22;5032334;28;20067;-70
2021/05/20 23:10:17;;;;;;;13.68;9.52;;;;;;;14.95;100.00;99824.94;5032357;28;20025;-70
2021/05/20 23:12:42;;;;;;;13.68;10.02;;;;;;;14.87;100.00;99847.69;5032562;28;20037;-70
2021/05/20 23:15:08;;;;;;;11.05;9.00;;;;;;;15.06;100.00;99861.56;5032350;28;20030;-71
2021/05/20 23:17:34;;;;;;;10.68;8.77;;;;;;;14.97;100.00;99859.91;5032337;28;20499;-70
2021/05/20 23:19:59;;;;;;;13.70;10.18;;;;;;;14.92;100.00;99862.19;5032846;28;20057;-71
2021/05/20 23:22:25;;;;;;;12.02;9.95;;;;;;;15.03;100.00;99852.16;5031990;28;20053;-71
2021/05/20 23:24:50;;;;;;;10.95;9.55;;;;;;;14.92;100.00;99826.09;5032524;28;20064;-70
2021/05/20 23:27:16;;;;;;;12.27;10.07;;;;;;;14.82;100.00;99820.97;5032412;28;20044;-71
2021/05/20 23:29:41;;;;;;;14.48;10.20;;;;;;;14.87;100.00;99823.13;5032337;28;20116;-70
2021/05/20 23:32:07;;;;;;;11.45;10.20;;;;;;;14.86;100.00;99827.56;5032234;28;20095;-70
2021/05/20 23:34:32;;;;;;;14.82;10.20;;;;;;;15.04;100.00;99851.16;5031913;28;20018;-70
2021/05/20 23:36:59;;;;;;;14.25;10.93;;;;;;;15.18;100.00;99859.41;5032172;28;20029;-70
2021/05/20 23:39:24;;;;;;;11.25;10.02;;;;;;;14.99;100.00;99832.38;5032572;28;20021;-70
2021/05/20 23:41:52;;;;;;;13.75;10.80;;;;;;;15.15;100.00;99857.91;5032154;28;20079;-70
2021/05/20 23:44:18;;;;;;;15.90;11.48;;;;;;;15.20;100.00;99854.81;5033654;28;20088;-70
2021/05/20 23:46:43;;;;;;;11.93;10.57;;;;;;;15.17;100.00;99853.31;5036064;28;20025;-71
2021/05/20 23:49:16;;;;;;;11.50;9.65;;;;;;;14.91;100.00;99820.97;5036330;28;20087;-71
2021/05/20 23:51:45;;;;;;;13.50;11.60;;;;;;;15.08;100.00;99820.81;5036301;28;20064;-70
2021/05/20 23:54:11;;;;;;;11.73;9.88;;;;;;;15.19;100.00;99847.88;5034865;28;20481;-70
2021/05/20 23:56:36;;;;;;;12.10;10.80;;;;;;;15.10;100.00;99842.59;5035954;28;20108;-71
2021/05/20 23:59:03;;;;;;;13.10;10.82;;;;;;;15.07;100.00;99842.09;5034615;28;20025;-70
